x

Port Orford - 15 Nm West Of Port Orford, Or (46015) Wave Buoy

8:50am - Thu 2nd Oct 2014 All times are PDT. -7 hours from GMT.

  • Sig Wave height 6.2ft
  • Swell Direction
  • Peak Period 9s
  • Average Period 5s
  • Wind
    25mph, 27mph gusts
  • Sea Temp 56°f
  • Air Temp 58°f
  • Sea Pressure 1019.9mb
  • Port Orford - 15 Nm West Of Port Orford, Or
  • Port Orford - 15 Nm West Of Port Orford, Or

More Historic Weather Station data

Upgrade to MSW Pro to gain access to the past 30 days of data for over 8000 Wavebouys and Weather Stations around the globe.

Join Pro

Comparision Forecast

View Surf forecast
   
Thu 10/02 8:50am 6ft 9s 5s 25 27 mph 1019.9mb 56f 58f
7:50am 6.5ft 9s 5s 22 27 mph 1019.4mb 56f 58f
6:50am 6ft 6s 5s 22 27 mph 1019.2mb 56f 58f
5:50am 6ft 6s 5s 20 25 mph 1019mb 56f 58f
4:50am 7ft 9s 6s 22 27 mph 1019.1mb 56f 58f
3:50am 7ft 6s 5s 22 25 mph 1019.2mb 56f 58f
2:50am 7ft 7s 6s 22 27 mph 1019.4mb 56f 58f
1:50am 7ft 6s 5s 22 27 mph 1019.8mb 56f 59f
12:50am 8ft 9s 6s 25 29 mph 1019.8mb 56f 59f
Wed 10/01 11:50pm 7.5ft 9s 6s 25 29 mph 1019.7mb 57f 59f
10:50pm 7ft 9s 5s 25 29 mph 1019.6mb 57f 59f
9:50pm 7ft 9s 5s 25 31 mph 1019.5mb 57f 59f
8:50pm 7ft 10s 6s 25 29 mph 1019.4mb 57f 60f
7:50pm 7ft 10s 5s 22 27 mph 1019.4mb 57f 60f
6:50pm 7ft 9s 5s 22 27 mph 1019.1mb 57f 60f
5:50pm 7ft 10s 6s 25 27 mph 1018.9mb 58f 60f
4:50pm 7ft 10s 5s 25 31 mph 1018.6mb 58f 60f
3:50pm 7ft 11s 6s 25 29 mph 1019mb 58f 60f
2:50pm 7ft 10s 6s 25 29 mph 1019.1mb 58f 60f
1:50pm 7ft 11s 6s 25 27 mph 1019.6mb 58f 59f
12:50pm 6.5ft 10s 6s 22 27 mph 1020.2mb 58f 58f
11:50am 6.5ft 10s 6s 20 22 mph 1020.9mb 57f 58f
10:50am 7ft 11s 7s 18 22 mph 1021.6mb 57f 57f
9:50am 7ft 10s 6s 18 22 mph 1021.8mb 58f 57f
8:50am 8ft 11s 7s 16 18 mph 1021.7mb 58f 57f
7:50am 7.5ft 11s 6s 18 20 mph 1021.7mb 58f 58f
6:50am 8ft 11s 7s 20 25 mph 1021.4mb 58f 58f
5:50am 8ft 11s 7s 18 22 mph 1021.1mb 58f 59f
4:50am 9ft 11s 7s 20 25 mph 1020.7mb 58f 59f
3:50am 8ft 10s 7s 18 22 mph 1021.1mb 58f 60f
2:50am 7.5ft 11s 7s 18 20 mph 1021.4mb 58f 59f
1:50am 7ft 11s 7s 13 18 mph 1021.6mb 58f 59f
12:50am 7ft 11s 7s 16 18 mph 1021.6mb 58f 58f
Tue 09/30 11:50pm 7ft 11s 7s 13 16 mph 1021.7mb 58f 58f
10:50pm 6ft 10s 6s 16 20 mph 1021.6mb 58f 60f
9:50pm 6.5ft 11s 6s 16 18 mph 1021.5mb 58f 60f
8:50pm 6ft 11s 7s 13 16 mph 1021.5mb 58f 60f
7:50pm 6ft 11s 7s 13 16 mph 1021.2mb 58f 60f
6:50pm 6ft 12s 6s 16 18 mph 1020.9mb 58f 60f
5:50pm 6ft 11s 6s 16 18 mph 1020.7mb 59f 61f
4:50pm 6ft 11s 7s 13 18 mph 1021mb 59f 61f
3:50pm 6ft 10s 7s 13 16 mph 1021.1mb 59f 61f
2:50pm 6ft 11s 7s 11
mph
1021.4mb 59f 60f
1:50pm 5ft 10s 7s 9 11 mph 1022mb 59f 60f
12:50pm  -   -   -  9 11 mph 1022.2mb 59f 59f
11:50am 6ft 11s 7s 7
mph
1022mb 58f 59f
10:50am 6ft 11s 7s 7
mph
1021.8mb 58f 59f
9:50am 5ft 10s 7s 4 7 mph 1021.5mb 58f 58f
8:50am 5ft 11s 7s 7
mph
1021mb 58f 58f
7:50am 5ft 11s 7s 4 7 mph 1020.6mb 58f 58f
6:50am 5ft 11s 7s 4 7 mph 1020.2mb 58f 58f
5:50am 5ft 11s 7s 7
mph
1020.1mb 58f 58f
4:50am 5.5ft 11s 7s 9
mph
1019.8mb 58f 59f
3:50am 6ft 11s 8s 2
mph
1019.5mb 58f 58f
2:50am 6ft 11s 8s 4
mph
1019.5mb 58f 58f
1:50am 6ft 11s 8s 4 7 mph 1019.3mb 58f 58f
12:50am 6ft 12s 8s 4 7 mph 1019.3mb 58f 59f
Mon 09/29 11:50pm 6ft 11s 9s 4
mph
1019.1mb 58f 58f
10:50pm 5.5ft 12s 9s 4 7 mph 1019mb 58f 58f
9:50pm 5ft 11s 9s 4
mph
1018.9mb 58f 59f
8:50pm 4.5ft 12s 8s 7
mph
1018.5mb 58f 59f
7:50pm 6ft 12s 10s 7 9 mph 1018mb 58f 60f
6:50pm 4.5ft 12s 8s 7 9 mph 1017.9mb 60f 60f
5:50pm 5ft 12s 8s 4 7 mph 1017.1mb 60f 60f
4:50pm 4.5ft 12s 8s 4 7 mph 1016.8mb 60f 60f
3:50pm 4.5ft 13s 8s 7 9 mph 1017mb 59f 59f
2:50pm 4ft 13s 7s 11
mph
1016.7mb 59f 59f
1:50pm 4ft 13s 7s 11 13 mph 1017mb 59f 59f
12:50pm 4ft 13s 7s 11 13 mph 1017mb 59f 58f
11:50am 4ft 14s 7s 11 13 mph 1017mb 58f 59f
10:50am 3.5ft 14s 6s 11 13 mph 1017mb 59f 59f
9:50am 3.5ft 10s 6s 11 13 mph 1016.7mb 58f 59f
8:50am 3.5ft 8s 6s 7 9 mph 1016.9mb 58f 60f
7:50am 3ft 7s 6s 7 9 mph 1016.5mb 59f 59f
6:50am 3ft 7s 6s 7 9 mph 1016.1mb 58f 59f
5:50am 3ft 8s 5s 7 9 mph 1016mb 58f 59f
4:50am 3ft 7s 5s 7 9 mph 1015.4mb 58f 58f
3:50am 3.5ft 8s 5s 7 9 mph 1015.2mb 58f 59f
2:50am 3.5ft 8s 5s 7 9 mph 1015mb 58f 59f
1:50am 3.5ft 8s 5s 9
mph
1014.5mb 58f 59f
12:50am 3.5ft 8s 5s 11 13 mph 1014.7mb 58f 60f
Sun 09/28 11:50pm 3.5ft 8s 5s 11 13 mph 1014.6mb 58f 59f
10:50pm 3.5ft 8s 5s 11 13 mph 1014.4mb 58f 59f
9:50pm 3.5ft 8s 5s 13 16 mph 1014.3mb 58f 60f
8:50pm 4ft 8s 5s 13 16 mph 1014.2mb 58f 60f
7:50pm 4.5ft 8s 5s 13
mph
1013.8mb 58f 60f
6:50pm 4.5ft 8s 5s 16 18 mph 1013.6mb 58f 61f
5:50pm 4.5ft 8s 5s 16 18 mph 1013.3mb 58f 61f
4:50pm 4.5ft 6s 5s 16 18 mph 1013.2mb 58f 60f